Egyptian Hills, Illinois
Current Conditions -  °F | °C
As of 9:49 AM on Friday 31 Oct 2014 (Local Time) from KMWA Reporting Station
Overcast Overcast  
Wind Chill: 50°   Ceiling: 2100
Heat Index: 50°   Visibility: 10mi
Dew Point: 43°   Wind: 12mph
Humidity: 76%   Direction: 350°N
Pressure: 30.15"   Gusts: 21mph
Location:  37.6398°N, 88.8751°W
Report Text: KMWA 311449Z 35010G18KT 10SM BKN021 OVC030 10/06 A3015
Loading
Personal Weather Stations






























Interactive Weather Map
Tropical Storm Tracking
New forecast layout! Learn more

10-Day Weather Forecast

Advertisements
Track Severe Weather on mobile